Deer Park, Texas
Current Conditions -  °F | °C
As of 7:50 PM on Friday 28 Nov 2014 (Local Time) from KEFD Reporting Station
Few Clouds Few Clouds  
Wind Chill: 64°   Ceiling: Unl
Heat Index: 64°   Visibility: 10mi
Dew Point: 59°   Wind: 6mph
Humidity: 83%   Direction: 150°SSE
Pressure: 30.19"   Gusts: NA
Location:  29.69°N, 95.12°W
Report Text: KEFD 290150Z 15005KT 10SM FEW040 18/15 A3019
Loading
Personal Weather Stations






























Interactive Weather Map New forecast layout! Learn more

10-Day Weather Forecast

Advertisements
Track Severe Weather on mobile